sensor_id;sensor_type;location;lat;lon;timestamp;pressure;altitude;pressure_sealevel;temperature;humidity
77106;BME280;66057;54.718;18.426;2023-07-29T00:02:07;47330.09;;;-143.26;82.77
77106;BME280;66057;54.718;18.426;2023-07-29T00:04:32;47341.81;;;-143.26;82.38
77106;BME280;66057;54.718;18.426;2023-07-29T00:06:58;47328.16;;;-143.26;82.79
77106;BME280;66057;54.718;18.426;2023-07-29T00:09:24;47345.72;;;-143.26;82.86
77106;BME280;66057;54.718;18.426;2023-07-29T00:11:50;47345.72;;;-143.26;82.91
77106;BME280;66057;54.718;18.426;2023-07-29T00:14:15;47324.25;;;-143.26;82.77
77106;BME280;66057;54.718;18.426;2023-07-29T00:16:41;47345.72;;;-143.26;82.81
77106;BME280;66057;54.718;18.426;2023-07-29T00:19:08;47334.00;;;-143.26;82.98
77106;BME280;66057;54.718;18.426;2023-07-29T00:21:34;47291.09;;;-143.26;82.69
77106;BME280;66057;54.718;18.426;2023-07-29T00:24:00;47314.50;;;-143.26;82.89
77106;BME280;66057;54.718;18.426;2023-07-29T00:26:26;47343.75;;;-143.26;82.89
77106;BME280;66057;54.718;18.426;2023-07-29T00:28:55;47316.44;;;-143.26;82.89
77106;BME280;66057;54.718;18.426;2023-07-29T00:31:21;47310.59;;;-143.26;83.19
77106;BME280;66057;54.718;18.426;2023-07-29T00:33:47;47357.41;;;-143.26;83.12
77106;BME280;66057;54.718;18.426;2023-07-29T00:36:12;47353.50;;;-143.26;82.62
77106;BME280;66057;54.718;18.426;2023-07-29T00:38:38;47334.00;;;-143.26;82.88
77106;BME280;66057;54.718;18.426;2023-07-29T00:41:04;47353.50;;;-143.26;83.16
77106;BME280;66057;54.718;18.426;2023-07-29T00:43:31;47351.56;;;-143.26;82.74
77106;BME280;66057;54.718;18.426;2023-07-29T00:45:56;47326.19;;;-143.26;82.66
77106;BME280;66057;54.718;18.426;2023-07-29T00:48:24;47345.72;;;-143.26;82.84
77106;BME280;66057;54.718;18.426;2023-07-29T00:50:50;47361.31;;;-143.26;82.96
77106;BME280;66057;54.718;18.426;2023-07-29T00:53:16;47334.00;;;-143.26;83.24
77106;BME280;66057;54.718;18.426;2023-07-29T00:55:42;47337.91;;;-143.26;82.93
77106;BME280;66057;54.718;18.426;2023-07-29T00:58:08;47314.50;;;-143.26;83.44
77106;BME280;66057;54.718;18.426;2023-07-29T01:00:34;47347.66;;;-143.26;83.63
77106;BME280;66057;54.718;18.426;2023-07-29T01:03:01;47330.09;;;-143.26;83.39
77106;BME280;66057;54.718;18.426;2023-07-29T01:05:32;47341.81;;;-143.26;83.13
77106;BME280;66057;54.718;18.426;2023-07-29T01:08:06;47296.94;;;-143.26;83.08
77106;BME280;66057;54.718;18.426;2023-07-29T01:13:38;47345.72;;;-143.26;82.87
77106;BME280;66057;54.718;18.426;2023-07-29T01:16:12;47330.09;;;-143.26;83.56
77106;BME280;66057;54.718;18.426;2023-07-29T01:18:39;47347.66;;;-143.26;83.28
77106;BME280;66057;54.718;18.426;2023-07-29T01:21:08;47330.09;;;-143.26;83.65
77106;BME280;66057;54.718;18.426;2023-07-29T01:23:34;47318.41;;;-143.26;83.77
77106;BME280;66057;54.718;18.426;2023-07-29T01:26:01;47349.63;;;-143.26;84.23
77106;BME280;66057;54.718;18.426;2023-07-29T01:28:27;47320.34;;;-143.26;83.54
77106;BME280;66057;54.718;18.426;2023-07-29T01:31:25;47328.16;;;-143.26;83.75
77106;BME280;66057;54.718;18.426;2023-07-29T01:34:01;47334.00;;;-143.26;83.90
77106;BME280;66057;54.718;18.426;2023-07-29T01:36:32;47337.91;;;-143.26;83.97
77106;BME280;66057;54.718;18.426;2023-07-29T01:39:01;47334.00;;;-143.26;83.34
77106;BME280;66057;54.718;18.426;2023-07-29T01:41:28;47361.31;;;-143.26;83.65
77106;BME280;66057;54.718;18.426;2023-07-29T01:43:55;47345.72;;;-143.26;83.34
77106;BME280;66057;54.718;18.426;2023-07-29T01:46:22;47337.91;;;-143.26;83.16
77106;BME280;66057;54.718;18.426;2023-07-29T01:48:47;47332.06;;;-143.26;83.42
77106;BME280;66057;54.718;18.426;2023-07-29T01:51:13;47335.97;;;-143.26;83.47
77106;BME280;66057;54.718;18.426;2023-07-29T01:53:39;47326.19;;;-143.26;82.85
77106;BME280;66057;54.718;18.426;2023-07-29T01:56:04;47343.75;;;-143.26;83.12
77106;BME280;66057;54.718;18.426;2023-07-29T01:58:30;47326.19;;;-143.26;82.69
77106;BME280;66057;54.718;18.426;2023-07-29T02:00:56;47334.00;;;-143.26;83.19
77106;BME280;66057;54.718;18.426;2023-07-29T02:03:22;47316.44;;;-143.26;83.18
77106;BME280;66057;54.718;18.426;2023-07-29T02:05:47;47361.31;;;-143.26;82.98
77106;BME280;66057;54.718;18.426;2023-07-29T02:08:13;47353.50;;;-143.26;83.24
77106;BME280;66057;54.718;18.426;2023-07-29T02:10:39;47304.75;;;-143.26;82.67
77106;BME280;66057;54.718;18.426;2023-07-29T02:13:05;47330.09;;;-143.26;83.28
77106;BME280;66057;54.718;18.426;2023-07-29T02:15:30;47306.69;;;-143.26;82.70
77106;BME280;66057;54.718;18.426;2023-07-29T02:17:56;47334.00;;;-143.26;82.83
77106;BME280;66057;54.718;18.426;2023-07-29T02:20:24;47337.91;;;-143.26;83.27
77106;BME280;66057;54.718;18.426;2023-07-29T02:22:50;47361.31;;;-143.26;83.21
77106;BME280;66057;54.718;18.426;2023-07-29T02:25:16;47374.97;;;-143.26;83.17
77106;BME280;66057;54.718;18.426;2023-07-29T02:27:41;47337.91;;;-143.26;83.14
77106;BME280;66057;54.718;18.426;2023-07-29T02:30:07;47326.19;;;-143.26;83.45
77106;BME280;66057;54.718;18.426;2023-07-29T02:32:35;47318.41;;;-143.26;83.67
77106;BME280;66057;54.718;18.426;2023-07-29T02:35:01;47359.38;;;-143.26;83.77
77106;BME280;66057;54.718;18.426;2023-07-29T02:37:27;47318.41;;;-143.26;83.83
77106;BME280;66057;54.718;18.426;2023-07-29T02:39:52;47347.66;;;-143.26;83.77
77106;BME280;66057;54.718;18.426;2023-07-29T02:42:18;47349.63;;;-143.26;83.85
77106;BME280;66057;54.718;18.426;2023-07-29T02:44:43;47335.97;;;-143.26;83.68
77106;BME280;66057;54.718;18.426;2023-07-29T02:47:09;47337.91;;;-143.26;83.67
77106;BME280;66057;54.718;18.426;2023-07-29T02:49:35;47351.56;;;-143.26;83.84
77106;BME280;66057;54.718;18.426;2023-07-29T02:52:01;47320.34;;;-143.26;83.83
77106;BME280;66057;54.718;18.426;2023-07-29T02:54:26;47353.50;;;-143.26;83.51
77106;BME280;66057;54.718;18.426;2023-07-29T02:56:53;47330.09;;;-143.26;83.43
77106;BME280;66057;54.718;18.426;2023-07-29T02:59:18;47334.00;;;-143.26;83.77
77106;BME280;66057;54.718;18.426;2023-07-29T03:01:44;47365.22;;;-143.26;83.30
77106;BME280;66057;54.718;18.426;2023-07-29T03:04:10;47310.59;;;-143.26;83.56
77106;BME280;66057;54.718;18.426;2023-07-29T03:06:38;47361.31;;;-143.26;83.56
77106;BME280;66057;54.718;18.426;2023-07-29T03:09:04;47332.06;;;-143.26;83.55
77106;BME280;66057;54.718;18.426;2023-07-29T03:11:30;47320.34;;;-143.26;83.80
77106;BME280;66057;54.718;18.426;2023-07-29T03:13:56;47339.84;;;-143.26;83.69
77106;BME280;66057;54.718;18.426;2023-07-29T03:16:22;47337.91;;;-143.26;83.40
77106;BME280;66057;54.718;18.426;2023-07-29T03:18:49;47328.16;;;-143.26;83.66
77106;BME280;66057;54.718;18.426;2023-07-29T03:21:15;47337.91;;;-143.26;83.72
77106;BME280;66057;54.718;18.426;2023-07-29T03:23:40;47339.84;;;-143.26;83.70
77106;BME280;66057;54.718;18.426;2023-07-29T03:26:06;47355.47;;;-143.26;84.22
77106;BME280;66057;54.718;18.426;2023-07-29T03:28:41;47347.66;;;-143.26;83.75
77106;BME280;66057;54.718;18.426;2023-07-29T03:31:07;47355.47;;;-143.26;83.98
77106;BME280;66057;54.718;18.426;2023-07-29T03:33:33;47347.66;;;-143.26;84.11
77106;BME280;66057;54.718;18.426;2023-07-29T03:35:59;47341.81;;;-143.26;83.99
77106;BME280;66057;54.718;18.426;2023-07-29T03:38:25;47355.47;;;-143.26;83.95
77106;BME280;66057;54.718;18.426;2023-07-29T03:40:51;47332.06;;;-143.26;83.93
77106;BME280;66057;54.718;18.426;2023-07-29T03:43:17;47371.06;;;-143.26;84.13
77106;BME280;66057;54.718;18.426;2023-07-29T03:45:43;47341.81;;;-143.26;83.75
77106;BME280;66057;54.718;18.426;2023-07-29T03:48:08;47361.31;;;-143.26;84.13
77106;BME280;66057;54.718;18.426;2023-07-29T03:50:35;47330.09;;;-143.26;83.86
77106;BME280;66057;54.718;18.426;2023-07-29T03:53:03;47334.00;;;-143.26;84.46
77106;BME280;66057;54.718;18.426;2023-07-29T03:55:29;47326.19;;;-143.26;83.93
77106;BME280;66057;54.718;18.426;2023-07-29T03:57:59;47355.47;;;-143.26;83.95
77106;BME280;66057;54.718;18.426;2023-07-29T04:00:25;47339.84;;;-143.26;84.53
77106;BME280;66057;54.718;18.426;2023-07-29T04:02:51;47382.78;;;-143.26;84.54
77106;BME280;66057;54.718;18.426;2023-07-29T04:05:18;47330.09;;;-143.26;84.38
77106;BME280;66057;54.718;18.426;2023-07-29T04:07:43;47330.09;;;-143.26;84.53
77106;BME280;66057;54.718;18.426;2023-07-29T04:10:10;47343.75;;;-143.26;84.83
77106;BME280;66057;54.718;18.426;2023-07-29T04:12:37;47318.41;;;-143.26;85.14
77106;BME280;66057;54.718;18.426;2023-07-29T04:15:03;47322.31;;;-143.26;84.75
77106;BME280;66057;54.718;18.426;2023-07-29T04:17:29;47296.94;;;-143.26;85.11
77106;BME280;66057;54.718;18.426;2023-07-29T04:19:55;47353.50;;;-143.26;85.39
77106;BME280;66057;54.718;18.426;2023-07-29T04:22:22;47326.19;;;-143.26;85.45
77106;BME280;66057;54.718;18.426;2023-07-29T04:24:48;47326.19;;;-143.26;85.94
77106;BME280;66057;54.718;18.426;2023-07-29T04:27:13;47316.44;;;-143.26;86.27
77106;BME280;66057;54.718;18.426;2023-07-29T04:29:39;47337.91;;;-143.26;85.58
77106;BME280;66057;54.718;18.426;2023-07-29T04:32:05;47324.25;;;-143.26;85.88
77106;BME280;66057;54.718;18.426;2023-07-29T04:34:31;47328.16;;;-143.26;85.99
77106;BME280;66057;54.718;18.426;2023-07-29T04:36:57;47345.72;;;-143.26;86.90
77106;BME280;66057;54.718;18.426;2023-07-29T04:39:23;47296.94;;;-143.26;86.80
77106;BME280;66057;54.718;18.426;2023-07-29T04:41:49;47343.75;;;-143.26;86.64
77106;BME280;66057;54.718;18.426;2023-07-29T04:44:15;47326.19;;;-143.26;86.71
77106;BME280;66057;54.718;18.426;2023-07-29T04:46:40;47308.66;;;-143.26;86.73
77106;BME280;66057;54.718;18.426;2023-07-29T04:49:06;47345.72;;;-143.26;86.87
77106;BME280;66057;54.718;18.426;2023-07-29T04:51:32;47308.66;;;-143.26;87.38
77106;BME280;66057;54.718;18.426;2023-07-29T04:53:58;47365.22;;;-143.26;86.94
77106;BME280;66057;54.718;18.426;2023-07-29T04:56:24;47332.06;;;-143.26;85.94
77106;BME280;66057;54.718;18.426;2023-07-29T04:58:50;47339.84;;;-143.26;85.84
77106;BME280;66057;54.718;18.426;2023-07-29T05:01:16;47326.19;;;-143.26;85.49
77106;BME280;66057;54.718;18.426;2023-07-29T05:03:42;47355.47;;;-143.26;85.48
77106;BME280;66057;54.718;18.426;2023-07-29T05:06:08;47326.19;;;-143.26;85.53
77106;BME280;66057;54.718;18.426;2023-07-29T05:08:34;47318.41;;;-143.26;85.43
77106;BME280;66057;54.718;18.426;2023-07-29T05:11:00;47314.50;;;-143.26;86.18
77106;BME280;66057;54.718;18.426;2023-07-29T05:13:25;47330.09;;;-143.26;85.99
77106;BME280;66057;54.718;18.426;2023-07-29T05:15:51;47306.69;;;-143.26;86.02
77106;BME280;66057;54.718;18.426;2023-07-29T05:18:18;47363.28;;;-143.26;85.82
77106;BME280;66057;54.718;18.426;2023-07-29T05:20:44;47357.41;;;-143.26;85.91
77106;BME280;66057;54.718;18.426;2023-07-29T05:23:10;47316.44;;;-143.26;85.60
77106;BME280;66057;54.718;18.426;2023-07-29T05:25:35;47351.56;;;-143.26;86.22
77106;BME280;66057;54.718;18.426;2023-07-29T05:28:02;47334.00;;;-143.26;85.88
77106;BME280;66057;54.718;18.426;2023-07-29T05:30:28;47308.66;;;-143.26;86.27
77106;BME280;66057;54.718;18.426;2023-07-29T05:32:57;47320.34;;;-143.26;87.25
77106;BME280;66057;54.718;18.426;2023-07-29T05:35:23;47324.25;;;-143.26;87.21
77106;BME280;66057;54.718;18.426;2023-07-29T05:37:49;47283.28;;;-143.26;87.26
77106;BME280;66057;54.718;18.426;2023-07-29T05:40:15;47314.50;;;-143.26;87.11
77106;BME280;66057;54.718;18.426;2023-07-29T05:42:41;47314.50;;;-143.26;87.06
77106;BME280;66057;54.718;18.426;2023-07-29T05:45:07;47308.66;;;-143.26;86.79
77106;BME280;66057;54.718;18.426;2023-07-29T05:47:33;47289.13;;;-143.26;86.86
77106;BME280;66057;54.718;18.426;2023-07-29T05:49:59;47302.78;;;-143.26;86.53
77106;BME280;66057;54.718;18.426;2023-07-29T05:52:27;47326.19;;;-143.26;86.50
77106;BME280;66057;54.718;18.426;2023-07-29T05:54:53;47326.19;;;-143.26;86.52
77106;BME280;66057;54.718;18.426;2023-07-29T05:57:19;47318.41;;;-143.26;86.10
77106;BME280;66057;54.718;18.426;2023-07-29T05:59:44;47312.56;;;-143.26;86.17
77106;BME280;66057;54.718;18.426;2023-07-29T06:02:10;47318.41;;;-143.26;85.94
77106;BME280;66057;54.718;18.426;2023-07-29T06:04:35;47318.41;;;-143.26;85.69
77106;BME280;66057;54.718;18.426;2023-07-29T06:07:01;47298.91;;;-143.26;85.71
77106;BME280;66057;54.718;18.426;2023-07-29T06:09:27;47304.75;;;-143.26;85.84
77106;BME280;66057;54.718;18.426;2023-07-29T06:11:54;47255.97;;;-143.26;85.05
77106;BME280;66057;54.718;18.426;2023-07-29T06:14:20;47295.00;;;-143.26;84.34
77106;BME280;66057;54.718;18.426;2023-07-29T06:16:46;47279.38;;;-143.26;84.75
77106;BME280;66057;54.718;18.426;2023-07-29T06:19:11;47296.94;;;-143.26;84.07
77106;BME280;66057;54.718;18.426;2023-07-29T06:21:38;47291.09;;;-143.26;83.37
77106;BME280;66057;54.718;18.426;2023-07-29T06:24:04;47310.59;;;-143.26;82.75
77106;BME280;66057;54.718;18.426;2023-07-29T06:26:30;47281.34;;;-143.26;81.98
77106;BME280;66057;54.718;18.426;2023-07-29T06:28:56;47246.22;;;-143.26;81.46
77106;BME280;66057;54.718;18.426;2023-07-29T06:31:22;47289.13;;;-143.26;80.60
77106;BME280;66057;54.718;18.426;2023-07-29T06:33:47;47302.78;;;-143.26;80.49
77106;BME280;66057;54.718;18.426;2023-07-29T06:36:14;47269.63;;;-143.26;79.00
77106;BME280;66057;54.718;18.426;2023-07-29T06:38:42;47291.09;;;-143.26;78.46
77106;BME280;66057;54.718;18.426;2023-07-29T06:41:08;47300.84;;;-143.26;77.76
77106;BME280;66057;54.718;18.426;2023-07-29T06:43:34;47259.88;;;-143.26;77.08
77106;BME280;66057;54.718;18.426;2023-07-29T06:46:00;47289.13;;;-143.26;75.56
77106;BME280;66057;54.718;18.426;2023-07-29T06:48:25;47300.84;;;-143.26;74.79
77106;BME280;66057;54.718;18.426;2023-07-29T06:50:51;47283.28;;;-143.26;74.11
77106;BME280;66057;54.718;18.426;2023-07-29T06:53:17;47295.00;;;-143.26;73.36
77106;BME280;66057;54.718;18.426;2023-07-29T06:55:44;47302.78;;;-143.26;71.63
77106;BME280;66057;54.718;18.426;2023-07-29T06:58:10;47277.44;;;-143.26;67.01
77106;BME280;66057;54.718;18.426;2023-07-29T07:00:36;47291.09;;;-143.26;65.84
77106;BME280;66057;54.718;18.426;2023-07-29T07:03:01;47275.47;;;-143.26;62.12
77106;BME280;66057;54.718;18.426;2023-07-29T07:05:28;47291.09;;;-143.26;64.48
77106;BME280;66057;54.718;18.426;2023-07-29T07:07:53;47246.22;;;-143.26;64.72
77106;BME280;66057;54.718;18.426;2023-07-29T07:10:19;47242.31;;;-143.26;64.13
77106;BME280;66057;54.718;18.426;2023-07-29T07:12:45;47279.38;;;-143.26;64.07
77106;BME280;66057;54.718;18.426;2023-07-29T07:15:11;47263.78;;;-143.26;64.11
77106;BME280;66057;54.718;18.426;2023-07-29T07:17:36;47263.78;;;-143.26;63.63
77106;BME280;66057;54.718;18.426;2023-07-29T07:20:02;47263.78;;;-143.26;64.79
77106;BME280;66057;54.718;18.426;2023-07-29T07:22:28;47236.47;;;-143.26;62.77
77106;BME280;66057;54.718;18.426;2023-07-29T07:24:54;47271.59;;;-143.26;60.68
77106;BME280;66057;54.718;18.426;2023-07-29T07:27:20;47252.06;;;-143.26;62.00
77106;BME280;66057;54.718;18.426;2023-07-29T07:29:45;47248.16;;;-143.26;61.14
77106;BME280;66057;54.718;18.426;2023-07-29T07:32:11;47250.13;;;-143.26;61.25
77106;BME280;66057;54.718;18.426;2023-07-29T07:34:37;47242.31;;;-143.26;61.49
77106;BME280;66057;54.718;18.426;2023-07-29T07:37:02;47240.38;;;-143.26;61.06
77106;BME280;66057;54.718;18.426;2023-07-29T07:39:31;47257.94;;;-143.26;60.54
77106;BME280;66057;54.718;18.426;2023-07-29T07:41:57;47255.97;;;-143.26;58.54
77106;BME280;66057;54.718;18.426;2023-07-29T07:44:22;47275.47;;;-143.26;59.95
77106;BME280;66057;54.718;18.426;2023-07-29T07:46:48;47254.03;;;-143.26;55.99
77106;BME280;66057;54.718;18.426;2023-07-29T07:49:14;47250.13;;;-143.26;55.88
77106;BME280;66057;54.718;18.426;2023-07-29T07:51:40;47259.88;;;-143.26;56.74
77106;BME280;66057;54.718;18.426;2023-07-29T07:54:05;47252.06;;;-143.26;56.18
77106;BME280;66057;54.718;18.426;2023-07-29T07:56:31;47252.06;;;-143.26;55.99
77106;BME280;66057;54.718;18.426;2023-07-29T07:58:57;47252.06;;;-143.26;56.50
77106;BME280;66057;54.718;18.426;2023-07-29T08:01:23;47213.06;;;-143.26;56.19
77106;BME280;66057;54.718;18.426;2023-07-29T08:03:49;47234.50;;;-143.26;56.98
77106;BME280;66057;54.718;18.426;2023-07-29T08:06:14;47244.28;;;-143.26;56.96
77106;BME280;66057;54.718;18.426;2023-07-29T08:08:40;47240.38;;;-143.26;56.86
77106;BME280;66057;54.718;18.426;2023-07-29T08:11:06;47224.75;;;-143.26;56.98
77106;BME280;66057;54.718;18.426;2023-07-29T08:13:32;47230.63;;;-143.26;56.65
77106;BME280;66057;54.718;18.426;2023-07-29T08:15:57;47224.75;;;-143.26;56.79
77106;BME280;66057;54.718;18.426;2023-07-29T08:18:23;47211.09;;;-143.26;56.77
77106;BME280;66057;54.718;18.426;2023-07-29T08:20:54;47193.53;;;-143.26;56.17
77106;BME280;66057;54.718;18.426;2023-07-29T08:23:21;47228.66;;;-143.26;55.24
77106;BME280;66057;54.718;18.426;2023-07-29T08:26:00;47238.41;;;-143.26;54.95
77106;BME280;66057;54.718;18.426;2023-07-29T08:28:29;47220.84;;;-143.26;56.05
77106;BME280;66057;54.718;18.426;2023-07-29T08:30:56;47232.56;;;-143.26;55.96
77106;BME280;66057;54.718;18.426;2023-07-29T08:33:22;47236.47;;;-143.26;54.85
77106;BME280;66057;54.718;18.426;2023-07-29T08:35:47;47195.50;;;-143.26;54.72
77106;BME280;66057;54.718;18.426;2023-07-29T08:38:13;47232.56;;;-143.26;54.92
77106;BME280;66057;54.718;18.426;2023-07-29T08:40:44;47224.75;;;-143.26;54.21
77106;BME280;66057;54.718;18.426;2023-07-29T08:43:12;47222.81;;;-143.26;54.75
77106;BME280;66057;54.718;18.426;2023-07-29T08:45:39;47205.25;;;-143.26;54.35
77106;BME280;66057;54.718;18.426;2023-07-29T08:48:10;47226.72;;;-143.26;52.66
77106;BME280;66057;54.718;18.426;2023-07-29T08:50:37;47248.16;;;-143.26;52.06
77106;BME280;66057;54.718;18.426;2023-07-29T08:53:06;47213.06;;;-143.26;52.43
77106;BME280;66057;54.718;18.426;2023-07-29T08:55:32;47224.75;;;-143.26;52.17
77106;BME280;66057;54.718;18.426;2023-07-29T08:57:59;47207.19;;;-143.26;52.25
77106;BME280;66057;54.718;18.426;2023-07-29T09:00:29;47234.50;;;-143.26;53.01
77106;BME280;66057;54.718;18.426;2023-07-29T09:02:56;47230.63;;;-143.26;50.94
77106;BME280;66057;54.718;18.426;2023-07-29T09:05:24;47195.50;;;-143.26;49.71
77106;BME280;66057;54.718;18.426;2023-07-29T09:07:51;47189.66;;;-143.26;51.00
77106;BME280;66057;54.718;18.426;2023-07-29T09:10:21;47213.06;;;-143.26;50.27
77106;BME280;66057;54.718;18.426;2023-07-29T09:12:48;47179.88;;;-143.26;50.48
77106;BME280;66057;54.718;18.426;2023-07-29T09:15:26;47209.16;;;-143.26;50.71
77106;BME280;66057;54.718;18.426;2023-07-29T09:17:52;47185.75;;;-143.26;50.04
77106;BME280;66057;54.718;18.426;2023-07-29T09:20:23;47213.06;;;-143.26;48.48
77106;BME280;66057;54.718;18.426;2023-07-29T09:22:50;47193.53;;;-143.26;48.59
77106;BME280;66057;54.718;18.426;2023-07-29T09:25:15;47222.81;;;-143.26;49.10
77106;BME280;66057;54.718;18.426;2023-07-29T09:27:42;47220.84;;;-143.26;49.10
77106;BME280;66057;54.718;18.426;2023-07-29T09:30:15;47201.34;;;-143.26;48.17
77106;BME280;66057;54.718;18.426;2023-07-29T09:32:41;47197.44;;;-143.26;48.10
77106;BME280;66057;54.718;18.426;2023-07-29T09:35:11;47224.75;;;-143.26;48.27
77106;BME280;66057;54.718;18.426;2023-07-29T09:37:38;47177.94;;;-143.26;47.59
77106;BME280;66057;54.718;18.426;2023-07-29T09:40:06;47183.78;;;-143.26;47.54
77106;BME280;66057;54.718;18.426;2023-07-29T09:42:32;47185.75;;;-143.26;47.13
77106;BME280;66057;54.718;18.426;2023-07-29T09:44:58;47166.25;;;-143.26;46.80
77106;BME280;66057;54.718;18.426;2023-07-29T09:47:26;47252.06;;;-143.26;47.47
77106;BME280;66057;54.718;18.426;2023-07-29T09:49:52;47207.19;;;-143.26;47.52
77106;BME280;66057;54.718;18.426;2023-07-29T09:52:20;47191.59;;;-143.26;47.29
77106;BME280;66057;54.718;18.426;2023-07-29T09:54:47;47181.84;;;-143.26;46.49
77106;BME280;66057;54.718;18.426;2023-07-29T09:57:14;47185.75;;;-143.26;44.65
77106;BME280;66057;54.718;18.426;2023-07-29T09:59:40;47185.75;;;-143.26;45.50
77106;BME280;66057;54.718;18.426;2023-07-29T10:02:13;47211.09;;;-143.26;45.46
77106;BME280;66057;54.718;18.426;2023-07-29T10:04:41;47172.09;;;-143.26;44.89
77106;BME280;66057;54.718;18.426;2023-07-29T10:07:10;47197.44;;;-143.26;45.71
77106;BME280;66057;54.718;18.426;2023-07-29T10:09:37;47164.28;;;-143.26;45.18
77106;BME280;66057;54.718;18.426;2023-07-29T10:12:06;47168.19;;;-143.26;45.89
77106;BME280;66057;54.718;18.426;2023-07-29T10:14:32;47162.34;;;-143.26;43.99
77106;BME280;66057;54.718;18.426;2023-07-29T10:17:02;47174.03;;;-143.26;44.70
77106;BME280;66057;54.718;18.426;2023-07-29T10:19:28;47148.69;;;-143.26;46.04
77106;BME280;66057;54.718;18.426;2023-07-29T10:21:59;47158.44;;;-143.26;46.88
77106;BME280;66057;54.718;18.426;2023-07-29T10:24:30;47205.25;;;-143.26;58.21
77106;BME280;66057;54.718;18.426;2023-07-29T10:27:01;47195.50;;;-143.26;56.63
77106;BME280;66057;54.718;18.426;2023-07-29T10:29:31;47201.34;;;-143.26;60.12
77106;BME280;66057;54.718;18.426;2023-07-29T10:32:01;47226.72;;;-143.26;62.41
77106;BME280;66057;54.718;18.426;2023-07-29T10:34:30;47174.03;;;-143.26;64.77
77106;BME280;66057;54.718;18.426;2023-07-29T10:36:58;47168.19;;;-143.26;64.79
77106;BME280;66057;54.718;18.426;2023-07-29T10:39:25;47174.03;;;-143.26;65.64
77106;BME280;66057;54.718;18.426;2023-07-29T10:47:15;47195.50;;;-143.26;58.14
77106;BME280;66057;54.718;18.426;2023-07-29T10:49:46;47156.47;;;-143.26;63.72
77106;BME280;66057;54.718;18.426;2023-07-29T10:52:17;47193.53;;;-143.26;57.05
77106;BME280;66057;54.718;18.426;2023-07-29T10:54:53;47185.75;;;-143.26;61.57
77106;BME280;66057;54.718;18.426;2023-07-29T10:57:38;47158.44;;;-143.26;60.41
77106;BME280;66057;54.718;18.426;2023-07-29T11:00:07;47213.06;;;-143.26;59.12
77106;BME280;66057;54.718;18.426;2023-07-29T11:02:38;47207.19;;;-143.26;62.73
77106;BME280;66057;54.718;18.426;2023-07-29T11:05:16;47205.25;;;-143.26;65.61
77106;BME280;66057;54.718;18.426;2023-07-29T11:07:47;47205.25;;;-143.26;66.12
77106;BME280;66057;54.718;18.426;2023-07-29T11:10:14;47174.03;;;-143.26;65.68
77106;BME280;66057;54.718;18.426;2023-07-29T11:12:50;47162.34;;;-143.26;65.63
77106;BME280;66057;54.718;18.426;2023-07-29T11:15:22;47205.25;;;-143.26;64.50
77106;BME280;66057;54.718;18.426;2023-07-29T11:20:17;47135.03;;;-143.26;66.19
77106;BME280;66057;54.718;18.426;2023-07-29T11:22:43;47201.34;;;-143.26;65.66
77106;BME280;66057;54.718;18.426;2023-07-29T11:25:11;47177.94;;;-143.26;65.11
77106;BME280;66057;54.718;18.426;2023-07-29T11:27:38;47170.13;;;-143.26;66.21
77106;BME280;66057;54.718;18.426;2023-07-29T11:30:09;47166.25;;;-143.26;66.14
77106;BME280;66057;54.718;18.426;2023-07-29T11:32:36;47187.69;;;-143.26;66.56
77106;BME280;66057;54.718;18.426;2023-07-29T11:35:07;47205.25;;;-143.26;65.66
77106;BME280;66057;54.718;18.426;2023-07-29T11:37:34;47187.69;;;-143.26;64.63
77106;BME280;66057;54.718;18.426;2023-07-29T11:40:00;47164.28;;;-143.26;66.47
77106;BME280;66057;54.718;18.426;2023-07-29T11:42:26;47176.00;;;-143.26;64.54
77106;BME280;66057;54.718;18.426;2023-07-29T11:44:56;47185.75;;;-143.26;65.60
77106;BME280;66057;54.718;18.426;2023-07-29T11:47:21;47185.75;;;-143.26;65.31
77106;BME280;66057;54.718;18.426;2023-07-29T11:49:49;47185.75;;;-143.26;64.96
77106;BME280;66057;54.718;18.426;2023-07-29T11:52:15;47189.66;;;-143.26;64.24
77106;BME280;66057;54.718;18.426;2023-07-29T11:54:44;47150.63;;;-143.26;63.33
77106;BME280;66057;54.718;18.426;2023-07-29T11:57:10;47150.63;;;-143.26;65.18
77106;BME280;66057;54.718;18.426;2023-07-29T11:59:37;47135.03;;;-143.26;65.22
77106;BME280;66057;54.718;18.426;2023-07-29T12:02:11;47148.69;;;-143.26;64.34
77106;BME280;66057;54.718;18.426;2023-07-29T12:04:38;47113.56;;;-143.26;63.50
77106;BME280;66057;54.718;18.426;2023-07-29T12:07:06;47133.06;;;-143.26;63.01
77106;BME280;66057;54.718;18.426;2023-07-29T12:09:31;47136.97;;;-143.26;62.20
77106;BME280;66057;54.718;18.426;2023-07-29T12:11:58;47107.72;;;-143.26;59.83
77106;BME280;66057;54.718;18.426;2023-07-29T12:14:30;47105.75;;;-143.26;58.65
77106;BME280;66057;54.718;18.426;2023-07-29T12:17:00;47101.84;;;-143.26;55.76
77106;BME280;66057;54.718;18.426;2023-07-29T12:19:34;47088.22;;;-143.26;55.23
77106;BME280;66057;54.718;18.426;2023-07-29T12:22:05;47084.31;;;-143.26;54.68
77106;BME280;66057;54.718;18.426;2023-07-29T12:24:34;47070.66;;;-143.26;55.10
77106;BME280;66057;54.718;18.426;2023-07-29T12:27:00;47072.59;;;-143.26;53.76
77106;BME280;66057;54.718;18.426;2023-07-29T12:29:27;47047.25;;;-143.26;53.21
77106;BME280;66057;54.718;18.426;2023-07-29T12:32:00;47068.69;;;-143.26;53.30
77106;BME280;66057;54.718;18.426;2023-07-29T12:34:28;47072.59;;;-143.26;55.19
77106;BME280;66057;54.718;18.426;2023-07-29T12:36:54;47049.19;;;-143.26;53.42
77106;BME280;66057;54.718;18.426;2023-07-29T12:41:52;47090.16;;;-143.26;53.23
77106;BME280;66057;54.718;18.426;2023-07-29T12:44:19;47066.75;;;-143.26;54.63